createdAt,value
2022-10-23T00:00:58.298Z,967.57
2022-10-23T00:01:58.627Z,967.61
2022-10-23T00:02:59.042Z,967.56
2022-10-23T00:03:59.264Z,967.56
2022-10-23T00:04:59.603Z,967.61
2022-10-23T00:05:59.812Z,967.62
2022-10-23T00:07:00.155Z,967.62
2022-10-23T00:08:00.484Z,967.62
2022-10-23T00:09:00.792Z,967.64
2022-10-23T00:10:02.990Z,967.64
2022-10-23T00:11:01.409Z,967.62
2022-10-23T00:12:01.735Z,967.63
2022-10-23T00:13:02.078Z,967.57
2022-10-23T00:14:02.306Z,967.57
2022-10-23T00:15:02.629Z,967.59
2022-10-23T00:16:02.958Z,967.59
2022-10-23T00:17:03.327Z,967.55
2022-10-23T00:18:03.544Z,967.55
2022-10-23T00:19:03.887Z,967.56
2022-10-23T00:20:04.227Z,967.56
2022-10-23T00:21:04.445Z,967.53
2022-10-23T00:22:04.784Z,967.56
2022-10-23T00:23:04.998Z,967.52
2022-10-23T00:24:05.399Z,967.54
2022-10-23T00:25:05.574Z,967.53
2022-10-23T00:26:05.928Z,967.49
2022-10-23T00:27:06.191Z,967.49
2022-10-23T00:28:06.420Z,967.46
2022-10-23T00:29:06.647Z,967.49
2022-10-23T00:30:06.860Z,967.46
2022-10-23T00:31:07.194Z,967.48
2022-10-23T00:32:07.533Z,967.49
2022-10-23T00:33:07.850Z,967.46
2022-10-23T00:34:08.523Z,967.42
2022-10-23T00:35:08.475Z,967.46
2022-10-23T00:36:08.798Z,967.50
2022-10-23T00:37:09.162Z,967.47
2022-10-23T00:38:09.382Z,967.46
2022-10-23T00:39:09.704Z,967.49
2022-10-23T00:40:10.006Z,967.53
2022-10-23T00:41:10.316Z,967.54
2022-10-23T00:42:10.679Z,967.55
2022-10-23T00:43:10.899Z,967.50
2022-10-23T00:44:11.226Z,967.53
2022-10-23T00:45:11.545Z,967.49
2022-10-23T00:46:11.778Z,967.45
2022-10-23T00:47:12.150Z,967.44
2022-10-23T00:48:12.365Z,967.42
2022-10-23T00:50:12.988Z,967.41
2022-10-23T00:51:13.306Z,967.44
2022-10-23T02:55:56.561Z,966.84
2022-10-23T02:56:56.814Z,966.80
2022-10-23T02:57:57.080Z,966.78
2022-10-23T02:58:57.335Z,966.78
2022-10-23T02:59:57.614Z,966.73
2022-10-23T03:00:57.880Z,966.73
2022-10-23T03:01:58.246Z,966.72
2022-10-23T03:02:58.443Z,966.70
2022-10-23T03:03:58.774Z,966.74
2022-10-23T03:04:59.041Z,966.72
2022-10-23T03:05:59.301Z,966.73
2022-10-23T03:06:59.528Z,966.72
2022-10-23T03:07:59.852Z,966.73
2022-10-23T03:09:00.107Z,966.70
2022-10-23T03:10:00.327Z,966.70
2022-10-23T03:11:00.545Z,966.71
2022-10-23T03:12:00.916Z,966.68
2022-10-23T03:13:01.184Z,966.69
2022-10-23T03:14:01.400Z,966.68
2022-10-23T03:15:01.659Z,966.67
2022-10-23T03:16:01.874Z,966.72
2022-10-23T03:17:02.206Z,966.69
2022-10-23T03:18:02.530Z,966.68
2022-10-23T03:19:02.941Z,966.68
2022-10-23T03:20:03.218Z,966.69
2022-10-23T03:21:03.441Z,966.71
2022-10-23T03:22:03.666Z,966.70
2022-10-23T03:23:03.974Z,966.72
2022-10-23T03:24:04.292Z,966.70
2022-10-23T03:25:04.630Z,966.71
2022-10-23T03:26:04.873Z,966.61
2022-10-23T03:27:05.127Z,966.60
2022-10-23T03:28:05.334Z,966.60
2022-10-23T03:29:05.673Z,966.59
2022-10-23T03:30:05.987Z,966.64
2022-10-23T03:31:06.301Z,966.57
2022-10-23T03:32:06.644Z,966.52
2022-10-23T03:33:06.852Z,966.55
2022-10-23T03:34:08.214Z,966.52
2022-10-23T03:35:07.424Z,966.49
2022-10-23T03:36:07.762Z,966.44
2022-10-23T03:37:08.016Z,966.51
2022-10-23T03:38:08.233Z,966.42
2022-10-23T03:39:08.558Z,966.45
2022-10-23T03:40:08.876Z,966.44
2022-10-23T03:41:09.095Z,966.43
2022-10-23T03:42:09.463Z,966.42
2022-10-23T03:43:09.701Z,966.50
2022-10-23T03:44:09.910Z,966.44
2022-10-23T03:45:10.243Z,966.50
2022-10-23T03:46:10.562Z,966.49
2022-10-23T03:47:10.896Z,966.49
2022-10-23T03:48:11.163Z,966.50
2022-10-23T03:49:11.386Z,966.49
2022-10-23T03:50:11.717Z,966.50
2022-10-23T03:51:11.939Z,966.51
2022-10-23T03:52:12.326Z,966.48
2022-10-23T03:53:12.573Z,966.44
2022-10-23T03:54:12.779Z,966.42
2022-10-23T03:55:13.143Z,966.40
2022-10-23T03:56:13.370Z,966.38
2022-10-23T03:57:13.614Z,966.40
2022-10-23T03:58:13.826Z,966.39
2022-10-23T03:59:14.142Z,966.37
2022-10-23T04:00:14.451Z,966.36
2022-10-23T04:01:14.852Z,966.33
2022-10-23T04:02:15.190Z,966.34
2022-10-23T04:03:15.300Z,966.32
2022-10-23T04:04:15.624Z,966.33
2022-10-23T04:05:15.871Z,966.31
2022-10-23T04:06:16.099Z,966.25
2022-10-23T04:07:16.368Z,966.28
2022-10-23T04:08:19.904Z,966.25
2022-10-23T04:09:16.878Z,966.25
2022-10-23T04:10:17.139Z,966.26
2022-10-23T04:11:17.355Z,966.24
2022-10-23T04:12:17.694Z,966.29
2022-10-23T04:13:18.034Z,966.30
2022-10-23T04:14:18.371Z,966.31
2022-10-23T04:15:18.745Z,966.24
2022-10-23T04:16:18.959Z,966.17
2022-10-23T04:17:19.344Z,966.12
2022-10-23T04:18:19.586Z,966.16
2022-10-23T04:19:19.900Z,966.16
2022-10-23T04:20:20.148Z,966.18
2022-10-23T04:21:20.382Z,966.27
2022-10-23T04:22:23.540Z,966.24
2022-10-23T04:23:21.946Z,966.24
2022-10-23T04:24:21.227Z,966.24
2022-10-23T04:25:21.555Z,966.22
2022-10-23T04:26:21.895Z,966.23
2022-10-23T04:27:22.224Z,966.24
2022-10-23T04:28:22.592Z,966.24
2022-10-23T04:29:22.817Z,966.27
2022-10-23T04:30:23.028Z,966.28
2022-10-23T04:31:23.257Z,966.35
2022-10-23T04:32:23.492Z,966.33
2022-10-23T04:33:23.753Z,966.31
2022-10-23T04:34:23.981Z,966.30
2022-10-23T04:35:24.330Z,966.32
2022-10-23T04:36:24.557Z,966.30
2022-10-23T04:37:24.881Z,966.28
2022-10-23T04:38:25.240Z,966.28
2022-10-23T04:39:25.494Z,966.27
2022-10-23T04:40:25.715Z,966.25
2022-10-23T04:41:26.060Z,966.28
2022-10-23T04:43:26.540Z,966.31
2022-10-23T04:44:26.890Z,966.25
2022-10-23T04:45:27.103Z,966.29
2022-10-23T04:46:27.442Z,966.31
2022-10-23T04:47:27.755Z,966.31
2022-10-23T04:48:29.198Z,966.30
2022-10-23T04:49:28.413Z,966.29
2022-10-23T04:50:28.635Z,966.25
2022-10-23T04:51:29.005Z,966.22
2022-10-23T04:52:29.255Z,966.17
2022-10-23T04:53:29.463Z,966.13
2022-10-23T04:54:29.790Z,966.13
2022-10-23T04:55:30.013Z,966.15
2022-10-23T04:56:30.359Z,966.22
2022-10-23T04:57:30.600Z,966.24
2022-10-23T04:58:30.821Z,966.24
2022-10-23T04:59:31.045Z,966.18
2022-10-23T05:00:31.293Z,966.21
2022-10-23T05:01:31.680Z,966.20
2022-10-23T05:02:31.871Z,966.28
2022-10-23T05:03:32.134Z,966.23
2022-10-23T05:04:32.358Z,966.25
2022-10-23T05:05:32.591Z,966.19
2022-10-23T05:06:32.818Z,966.17
2022-10-23T05:07:33.047Z,966.26
2022-10-23T05:08:33.405Z,966.24
2022-10-23T05:09:33.629Z,966.26
2022-10-23T05:10:33.857Z,966.22
2022-10-23T05:11:34.090Z,966.15
2022-10-23T05:12:34.429Z,966.12
2022-10-23T05:13:34.689Z,966.17
2022-10-23T05:14:34.925Z,966.15
2022-10-23T05:15:35.202Z,966.16
2022-10-23T05:16:35.451Z,966.10
2022-10-23T05:17:35.797Z,966.09
2022-10-23T05:18:36.557Z,966.15
2022-10-23T05:19:36.322Z,966.17
2022-10-23T05:20:36.666Z,966.22
2022-10-23T05:21:37.004Z,966.21
2022-10-23T05:22:37.339Z,966.16
2022-10-23T05:23:37.577Z,966.10
2022-10-23T05:24:37.829Z,966.07
2022-10-23T05:25:38.053Z,966.11
2022-10-23T05:26:38.433Z,966.12
2022-10-23T05:27:38.655Z,966.18
2022-10-23T05:28:39.044Z,966.16
2022-10-23T05:29:39.216Z,966.14
2022-10-23T05:30:39.570Z,966.09
2022-10-23T05:31:39.808Z,966.06
2022-10-23T05:32:40.353Z,966.00
2022-10-23T05:33:40.421Z,965.94
2022-10-23T05:34:40.639Z,965.98
2022-10-23T05:35:41.018Z,966.05
2022-10-23T05:36:41.247Z,966.05
2022-10-23T05:37:41.469Z,966.12
2022-10-23T05:38:41.693Z,966.12
2022-10-23T05:39:41.940Z,966.17
2022-10-23T05:40:42.159Z,966.20
2022-10-23T05:41:42.405Z,966.18
2022-10-23T05:42:43.015Z,966.10
2022-10-23T05:43:42.917Z,966.12
2022-10-23T05:44:43.130Z,966.06
2022-10-23T05:45:43.449Z,966.09
2022-10-23T05:46:43.830Z,966.16
2022-10-23T05:47:44.042Z,966.12
2022-10-23T05:48:44.285Z,966.16
2022-10-23T05:49:44.511Z,966.16
2022-10-23T05:50:44.831Z,966.16
2022-10-23T05:51:45.084Z,966.15
2022-10-23T05:52:45.663Z,966.15
2022-10-23T05:53:45.591Z,966.15
2022-10-23T05:54:45.920Z,966.17
2022-10-23T05:55:46.138Z,966.16
2022-10-23T05:56:46.473Z,966.16
2022-10-23T05:57:46.716Z,966.10
2022-10-23T05:58:46.977Z,966.08
2022-10-23T05:59:47.207Z,966.12
2022-10-23T06:00:47.428Z,966.19
2022-10-23T06:01:47.863Z,966.23
2022-10-23T06:02:47.950Z,966.24
2022-10-23T06:03:48.232Z,966.15
2022-10-23T06:04:48.447Z,966.12
2022-10-23T06:05:48.681Z,966.12
2022-10-23T06:06:49.053Z,966.16
2022-10-23T06:07:49.287Z,966.17
2022-10-23T06:08:49.521Z,966.19
2022-10-23T06:09:49.779Z,966.20
2022-10-23T06:10:50.019Z,966.23
2022-10-23T06:11:50.250Z,966.29
2022-10-23T06:12:50.570Z,966.29
2022-10-23T06:13:50.887Z,966.31
2022-10-23T06:14:51.952Z,966.31
2022-10-23T06:15:51.359Z,966.23
2022-10-23T06:16:51.620Z,966.18
2022-10-23T06:17:51.859Z,966.18
2022-10-23T06:18:52.109Z,966.25
2022-10-23T06:19:52.356Z,966.29
2022-10-23T06:20:52.578Z,966.30
2022-10-23T06:21:52.793Z,966.32
2022-10-23T06:22:53.127Z,966.30
2022-10-23T06:23:53.378Z,966.31
2022-10-23T06:24:53.606Z,966.32
2022-10-23T06:25:53.854Z,966.30
2022-10-23T06:26:54.073Z,966.27
2022-10-23T06:27:54.305Z,966.27
2022-10-23T06:28:54.658Z,966.29
2022-10-23T06:29:54.868Z,966.34
2022-10-23T06:30:55.206Z,966.33
2022-10-23T06:31:55.464Z,966.33
2022-10-23T06:32:55.713Z,966.31
2022-10-23T06:33:55.930Z,966.27
2022-10-23T06:34:56.158Z,966.31
2022-10-23T06:35:56.401Z,966.33
2022-10-23T06:36:56.624Z,966.37
2022-10-23T06:37:56.898Z,966.40
2022-10-23T06:38:57.181Z,966.36
2022-10-23T06:39:57.419Z,966.32
2022-10-23T06:40:57.653Z,966.28
2022-10-23T06:41:57.875Z,966.35
2022-10-23T06:42:58.249Z,966.37
2022-10-23T06:43:58.483Z,966.33
2022-10-23T06:45:01.137Z,966.35
2022-10-23T06:45:59.075Z,966.37
2022-10-23T06:46:59.303Z,966.43
2022-10-23T06:47:59.666Z,966.42
2022-10-23T06:48:59.924Z,966.40
2022-10-23T06:50:00.156Z,966.36
2022-10-23T06:51:00.389Z,966.36
2022-10-23T06:52:00.608Z,966.39
2022-10-23T06:53:00.957Z,966.41
2022-10-23T06:54:01.203Z,966.42
2022-10-23T06:55:01.418Z,966.37
2022-10-23T06:56:01.646Z,966.34
2022-10-23T06:57:01.991Z,966.33
2022-10-23T06:58:02.248Z,966.33
2022-10-23T06:59:02.456Z,966.41
2022-10-23T07:00:02.765Z,966.40
2022-10-23T07:01:03.266Z,966.44
2022-10-23T07:02:03.312Z,966.38
2022-10-23T07:03:03.666Z,966.34
2022-10-23T07:04:03.994Z,966.30
2022-10-23T07:05:04.239Z,966.24
2022-10-23T07:06:04.578Z,966.32
2022-10-23T07:07:04.915Z,966.38
2022-10-23T07:08:05.249Z,966.48
2022-10-23T07:09:05.626Z,966.42
2022-10-23T07:10:05.890Z,966.43
2022-10-23T07:11:06.125Z,966.43
2022-10-23T07:12:06.351Z,966.42
2022-10-23T07:13:06.677Z,966.47
2022-10-23T07:14:06.894Z,966.49
2022-10-23T07:15:07.224Z,966.50
2022-10-23T07:16:07.567Z,966.45
2022-10-23T07:17:07.825Z,966.42
2022-10-23T07:18:08.033Z,966.33
2022-10-23T07:19:08.403Z,966.41
2022-10-23T07:20:08.615Z,966.52
2022-10-23T07:21:08.935Z,966.64
2022-10-23T07:22:10.829Z,966.73
2022-10-23T07:23:09.526Z,966.75
2022-10-23T07:24:09.905Z,966.66
2022-10-23T07:25:10.128Z,966.54
2022-10-23T07:26:10.353Z,966.47
2022-10-23T07:27:10.693Z,966.48
2022-10-23T07:28:10.918Z,966.53
2022-10-23T07:29:11.182Z,966.56
2022-10-23T07:30:11.410Z,966.53
2022-10-23T07:31:11.754Z,966.51
2022-10-23T07:32:11.977Z,966.58
2022-10-23T07:33:12.304Z,966.61
2022-10-23T07:34:12.669Z,966.53
2022-10-23T07:36:14.160Z,966.39
2022-10-23T07:37:13.439Z,966.47
2022-10-23T07:38:13.785Z,966.46
2022-10-23T07:39:14.128Z,966.55
2022-10-23T07:40:14.325Z,966.57
2022-10-23T07:41:14.644Z,966.54
2022-10-23T07:42:14.967Z,966.60
2022-10-23T07:43:15.300Z,966.60
2022-10-23T07:44:15.655Z,966.60
2022-10-23T07:45:15.858Z,966.57
2022-10-23T07:46:16.189Z,966.55
2022-10-23T07:47:16.515Z,966.54
2022-10-23T07:48:16.828Z,966.60
2022-10-23T07:49:17.218Z,966.64
2022-10-23T07:50:17.467Z,966.58
2022-10-23T07:51:17.674Z,966.51
2022-10-23T07:52:18.012Z,966.39
2022-10-23T07:53:18.326Z,966.37
2022-10-23T07:54:18.650Z,966.34
2022-10-23T07:55:18.975Z,966.42
2022-10-23T07:56:19.177Z,966.42
2022-10-23T07:57:19.495Z,966.41
2022-10-23T07:58:19.800Z,966.51
2022-10-23T07:59:20.139Z,966.49
2022-10-23T08:00:20.538Z,966.43
2022-10-23T08:01:20.815Z,966.42
2022-10-23T08:02:21.058Z,966.38
2022-10-23T08:03:21.312Z,966.41
2022-10-23T08:04:21.663Z,966.45
2022-10-23T08:05:21.905Z,966.45
2022-10-23T08:06:22.102Z,966.46
2022-10-23T08:07:22.426Z,966.44
2022-10-23T08:08:22.796Z,966.41
2022-10-23T08:09:23.018Z,966.42
2022-10-23T08:10:23.383Z,966.43
2022-10-23T08:11:23.697Z,966.40
2022-10-23T08:12:23.926Z,966.41
2022-10-23T08:13:24.248Z,966.46
2022-10-23T08:14:24.566Z,966.44
2022-10-23T08:15:24.870Z,966.43
2022-10-23T08:16:25.215Z,966.37
2022-10-23T08:17:28.174Z,966.40
2022-10-23T08:18:25.641Z,966.41
2022-10-23T08:19:25.960Z,966.37
2022-10-23T08:20:26.297Z,966.38
2022-10-23T08:21:26.556Z,966.35
2022-10-23T08:22:26.790Z,966.27
2022-10-23T08:23:27.016Z,966.26
2022-10-23T08:24:27.240Z,966.30
2022-10-23T08:25:27.634Z,966.34
2022-10-23T08:26:27.889Z,966.35
2022-10-23T08:27:28.145Z,966.39
2022-10-23T08:28:28.369Z,966.39
2022-10-23T08:29:28.698Z,966.37
2022-10-23T08:30:29.036Z,966.33
2022-10-23T08:31:29.415Z,966.29
2022-10-23T08:32:29.628Z,966.27
2022-10-23T08:33:29.932Z,966.20
2022-10-23T08:34:30.260Z,966.14
2022-10-23T08:35:30.600Z,966.06
2022-10-23T08:36:30.838Z,966.13
2022-10-23T08:37:31.055Z,966.14
2022-10-23T08:38:31.400Z,966.15
2022-10-23T08:39:31.716Z,966.02
2022-10-23T08:40:32.067Z,965.97
2022-10-23T08:41:32.300Z,966.02
2022-10-23T08:42:32.489Z,966.11
2022-10-23T08:43:32.825Z,966.10
2022-10-23T08:44:33.142Z,966.14
2022-10-23T08:45:33.489Z,966.13
2022-10-23T08:46:33.826Z,966.15
2022-10-23T08:47:34.182Z,966.09
2022-10-23T08:48:34.405Z,966.12
2022-10-23T08:49:34.733Z,966.12
2022-10-23T08:50:35.101Z,966.09
2022-10-23T08:51:35.312Z,966.09
2022-10-23T08:52:35.669Z,966.14
2022-10-23T08:53:35.898Z,966.07
2022-10-23T08:54:36.222Z,966.09
2022-10-23T08:55:36.577Z,966.10
2022-10-23T08:56:36.909Z,966.13
2022-10-23T08:57:40.089Z,966.09
2022-10-23T08:58:38.460Z,966.03
2022-10-23T08:59:37.760Z,965.95
2022-10-23T09:00:38.072Z,965.90
2022-10-23T09:01:38.564Z,965.88
2022-10-23T09:02:38.692Z,965.95
2022-10-23T09:03:38.913Z,965.98
2022-10-23T09:04:39.237Z,966.02
2022-10-23T09:05:39.541Z,965.99
2022-10-23T09:06:39.851Z,965.95
2022-10-23T09:07:40.291Z,965.90
2022-10-23T09:08:40.520Z,965.91
2022-10-23T09:09:40.836Z,965.84
2022-10-23T09:10:41.168Z,965.93
2022-10-23T09:11:41.499Z,965.96
2022-10-23T09:12:41.731Z,965.91
2022-10-23T09:13:41.933Z,965.97
2022-10-23T09:14:42.260Z,965.92
2022-10-23T09:15:42.601Z,965.89
2022-10-23T09:16:42.791Z,965.85
2022-10-23T09:17:43.459Z,965.80
2022-10-23T09:18:43.401Z,965.76
2022-10-23T09:19:43.711Z,965.80
2022-10-23T09:20:44.028Z,965.81
2022-10-23T09:21:44.231Z,965.83
2022-10-23T09:22:44.541Z,965.81
2022-10-23T09:23:44.854Z,965.72
2022-10-23T09:24:45.172Z,965.66
2022-10-23T09:25:45.517Z,965.65
2022-10-23T09:26:45.833Z,965.71
2022-10-23T09:27:46.224Z,965.80
2022-10-23T09:28:46.413Z,965.89
2022-10-23T09:29:46.735Z,965.98
2022-10-23T09:30:47.041Z,965.98
2022-10-23T09:31:47.369Z,965.91
2022-10-23T09:32:47.713Z,965.79
2022-10-23T09:33:47.905Z,965.67
2022-10-23T09:34:48.253Z,965.61
2022-10-23T09:35:48.559Z,965.58
2022-10-23T09:36:48.898Z,965.62
2022-10-23T09:37:49.109Z,965.77
2022-10-23T09:38:49.403Z,965.85
2022-10-23T09:39:49.737Z,965.77
2022-10-23T09:40:49.935Z,965.74
2022-10-23T09:41:50.906Z,965.73
2022-10-23T09:42:50.597Z,965.76
2022-10-23T09:43:50.905Z,965.67
2022-10-23T09:44:51.240Z,965.60
2022-10-23T09:45:51.553Z,965.65
2022-10-23T09:46:51.880Z,965.71
2022-10-23T09:47:52.151Z,965.81
2022-10-23T09:48:52.445Z,965.81
2022-10-23T09:49:52.802Z,965.78
2022-10-23T09:50:53.026Z,965.78
2022-10-23T09:51:53.324Z,965.66
2022-10-23T09:52:53.690Z,965.63
2022-10-23T09:53:53.939Z,965.64
2022-10-23T09:54:54.265Z,965.67
2022-10-23T09:55:54.608Z,965.65
2022-10-23T09:56:54.811Z,965.68
2022-10-23T09:57:55.132Z,965.61
2022-10-23T09:58:55.464Z,965.55
2022-10-23T09:59:55.678Z,965.60
2022-10-23T10:00:55.986Z,965.68
2022-10-23T10:01:56.326Z,965.73
2022-10-23T10:02:56.433Z,965.77
2022-10-23T10:03:56.746Z,965.72
2022-10-23T10:04:57.084Z,965.71
2022-10-23T10:05:57.401Z,965.67
2022-10-23T10:06:57.697Z,965.61
2022-10-23T10:07:58.006Z,965.54
2022-10-23T10:08:58.313Z,965.58
2022-10-23T10:09:58.667Z,965.59
2022-10-23T10:10:58.888Z,965.61
2022-10-23T10:11:59.211Z,965.57
2022-10-23T10:12:59.523Z,965.52
2022-10-23T10:13:59.838Z,965.49
2022-10-23T10:15:00.165Z,965.41
2022-10-23T10:16:00.466Z,965.39
2022-10-23T10:17:00.783Z,965.40
2022-10-23T10:18:01.137Z,965.44
2022-10-23T10:19:01.433Z,965.50
2022-10-23T10:20:05.236Z,965.58
2022-10-23T10:21:03.062Z,965.61
2022-10-23T10:22:02.328Z,965.62
2022-10-23T10:23:02.629Z,965.55
2022-10-23T10:24:02.945Z,965.49
2022-10-23T10:25:03.259Z,965.47
2022-10-23T10:26:03.571Z,965.40
2022-10-23T10:27:03.918Z,965.34
2022-10-23T10:28:04.228Z,965.37
2022-10-23T10:29:04.536Z,965.39
2022-10-23T10:30:04.928Z,965.42
2022-10-23T10:31:05.109Z,965.35
2022-10-23T10:32:05.456Z,965.28
2022-10-23T10:33:05.787Z,965.31
2022-10-23T10:34:06.107Z,965.33
2022-10-23T10:35:06.419Z,965.39
2022-10-23T10:36:06.733Z,965.36
2022-10-23T10:37:07.084Z,965.28
2022-10-23T10:38:07.278Z,965.17
2022-10-23T10:39:07.579Z,965.03
2022-10-23T10:40:07.867Z,964.99
2022-10-23T10:41:08.200Z,965.11
2022-10-23T10:42:08.544Z,965.18
2022-10-23T10:43:08.888Z,965.28
2022-10-23T10:44:09.087Z,965.30
2022-10-23T10:45:09.386Z,965.13
2022-10-23T10:46:09.743Z,965.00
2022-10-23T10:47:09.957Z,964.96
2022-10-23T10:48:10.282Z,965.11
2022-10-23T10:49:10.624Z,965.33
2022-10-23T10:50:10.838Z,965.44
2022-10-23T10:51:11.176Z,965.50
2022-10-23T10:52:11.495Z,965.42
2022-10-23T10:53:11.839Z,965.38
2022-10-23T10:54:12.039Z,965.21
2022-10-23T10:55:12.355Z,965.15
2022-10-23T10:56:12.682Z,965.02
2022-10-23T10:57:13.041Z,965.01
2022-10-23T10:58:13.273Z,965.07
2022-10-23T10:59:13.520Z,965.15
2022-10-23T11:00:13.830Z,965.15
2022-10-23T11:01:14.215Z,965.14
2022-10-23T11:02:14.596Z,965.09
2022-10-23T11:03:14.776Z,965.05
2022-10-23T11:04:14.998Z,965.01
2022-10-23T11:05:15.296Z,965.02
2022-10-23T11:06:15.585Z,965.06
2022-10-23T11:07:15.923Z,965.04
2022-10-23T11:08:16.237Z,965.05
2022-10-23T11:09:20.723Z,965.01
2022-10-23T11:10:20.694Z,965.02
2022-10-23T11:11:17.208Z,964.92
2022-10-23T11:12:17.510Z,964.84
2022-10-23T11:13:17.811Z,964.77
2022-10-23T11:14:18.109Z,964.81
2022-10-23T11:15:18.402Z,964.90
2022-10-23T11:16:18.731Z,964.97
2022-10-23T11:17:19.050Z,964.95
2022-10-23T11:18:19.355Z,964.97
2022-10-23T11:19:19.683Z,964.87
2022-10-23T11:20:19.986Z,964.84
2022-10-23T11:21:20.278Z,964.74
2022-10-23T11:22:20.573Z,964.71
2022-10-23T11:23:20.871Z,964.70
2022-10-23T11:24:21.215Z,964.71
2022-10-23T11:25:25.264Z,964.70
2022-10-23T11:26:21.751Z,964.68
2022-10-23T11:27:22.081Z,964.72
2022-10-23T11:28:22.404Z,964.78
2022-10-23T11:29:22.712Z,964.84
2022-10-23T11:30:23.013Z,964.86
2022-10-23T11:31:23.344Z,964.81
2022-10-23T11:32:23.711Z,964.77
2022-10-23T11:33:23.941Z,964.72
2022-10-23T11:34:24.246Z,964.73
2022-10-23T11:35:24.555Z,964.72
2022-10-23T11:36:24.863Z,964.75
2022-10-23T11:37:25.166Z,964.71
2022-10-23T11:38:25.515Z,964.62
2022-10-23T11:39:25.723Z,964.61
2022-10-23T11:40:26.026Z,964.67
2022-10-23T11:41:27.134Z,964.67
2022-10-23T11:42:26.606Z,964.68
2022-10-23T11:43:26.934Z,964.71
2022-10-23T11:44:27.266Z,964.72
2022-10-23T11:45:27.605Z,964.70
2022-10-23T11:46:27.839Z,964.69
2022-10-23T11:47:28.017Z,964.68
2022-10-23T11:48:28.325Z,964.62
2022-10-23T11:49:28.653Z,964.60
2022-10-23T11:50:28.997Z,964.55
2022-10-23T11:51:29.303Z,964.51
2022-10-23T11:52:29.630Z,964.52
2022-10-23T11:53:29.935Z,964.58
2022-10-23T11:54:30.257Z,964.58
2022-10-23T11:55:30.626Z,964.61
2022-10-23T11:56:30.808Z,964.62
2022-10-23T11:58:31.388Z,964.58
2022-10-23T11:59:31.621Z,964.50
2022-10-23T12:00:31.967Z,964.47
2022-10-23T12:01:32.274Z,964.45
2022-10-23T12:02:32.561Z,964.48
2022-10-23T12:03:32.738Z,964.46
2022-10-23T12:04:33.041Z,964.43
2022-10-23T12:05:33.394Z,964.41
2022-10-23T12:06:33.598Z,964.38
2022-10-23T12:07:33.948Z,964.41
2022-10-23T12:08:34.134Z,964.45
2022-10-23T12:09:34.458Z,964.47
2022-10-23T12:10:34.784Z,964.44
2022-10-23T12:11:35.121Z,964.43
2022-10-23T12:12:35.455Z,964.33
2022-10-23T12:13:35.763Z,964.27
2022-10-23T12:14:36.072Z,964.29
2022-10-23T12:15:36.386Z,964.30
2022-10-23T12:16:36.718Z,964.40
2022-10-23T12:17:37.018Z,964.37
2022-10-23T12:18:37.296Z,964.34
2022-10-23T12:19:37.586Z,964.34
2022-10-23T12:20:37.934Z,964.34
2022-10-23T12:21:38.149Z,964.33
2022-10-23T12:22:38.502Z,964.38
2022-10-23T12:23:38.719Z,964.39
2022-10-23T12:24:39.037Z,964.31
2022-10-23T12:25:39.351Z,964.25
2022-10-23T12:26:39.639Z,964.23
2022-10-23T12:27:39.990Z,964.34
2022-10-23T12:28:40.166Z,964.39
2022-10-23T12:29:40.471Z,964.41
2022-10-23T12:30:40.784Z,964.33
2022-10-23T12:31:44.282Z,964.36
2022-10-23T12:32:42.792Z,964.35
2022-10-23T12:33:41.754Z,964.27
2022-10-23T12:34:42.062Z,964.26
2022-10-23T12:35:42.367Z,964.26
2022-10-23T12:36:42.723Z,964.20
2022-10-23T12:37:42.916Z,964.18
2022-10-23T12:38:43.253Z,964.10
2022-10-23T12:39:43.567Z,964.06
2022-10-23T12:40:43.881Z,964.10
2022-10-23T12:41:44.248Z,964.02
2022-10-23T12:42:44.697Z,963.95
2022-10-23T12:43:44.781Z,963.92
2022-10-23T12:44:44.963Z,963.91
2022-10-23T12:45:45.277Z,963.97
2022-10-23T12:46:45.597Z,963.94
2022-10-23T12:47:45.945Z,963.96
2022-10-23T12:48:46.158Z,963.99
2022-10-23T12:49:46.528Z,963.99
2022-10-23T12:50:46.741Z,963.95
2022-10-23T12:51:47.060Z,963.90
2022-10-23T12:52:47.412Z,963.87
2022-10-23T12:53:47.630Z,963.81
2022-10-23T12:54:47.984Z,963.80
2022-10-23T12:55:48.262Z,963.84
2022-10-23T12:56:48.506Z,963.87
2022-10-23T12:57:48.834Z,963.84
2022-10-23T12:58:49.327Z,963.84
2022-10-23T12:59:49.396Z,963.87
2022-10-23T13:00:50.122Z,963.92
2022-10-23T13:01:52.782Z,963.92
2022-10-23T13:02:50.484Z,963.94
2022-10-23T13:03:50.841Z,963.95
2022-10-23T13:04:50.803Z,963.93
2022-10-23T13:05:51.185Z,963.90
2022-10-23T13:06:51.500Z,963.88
2022-10-23T13:07:51.663Z,963.93
2022-10-23T13:08:52.052Z,963.95
2022-10-23T13:09:52.580Z,963.93
2022-10-23T13:10:52.819Z,963.95
2022-10-23T13:11:53.595Z,963.97
2022-10-23T13:12:53.506Z,964.00
2022-10-23T13:13:54.022Z,963.98
2022-10-23T13:14:53.823Z,963.94
2022-10-23T13:15:53.985Z,963.88
2022-10-23T13:16:54.101Z,963.82
2022-10-23T13:17:54.369Z,963.79
2022-10-23T13:18:54.686Z,963.85
2022-10-23T13:19:54.975Z,963.89
2022-10-23T13:20:55.234Z,963.91
2022-10-23T13:21:55.460Z,963.95
2022-10-23T13:22:59.311Z,963.92
2022-10-23T13:23:56.076Z,963.92
2022-10-23T13:24:56.439Z,963.90
2022-10-23T13:25:56.643Z,963.91
2022-10-23T13:26:57.000Z,963.98
2022-10-23T13:27:57.185Z,964.03
2022-10-23T13:28:57.514Z,964.07
2022-10-23T13:29:57.867Z,963.99
2022-10-23T13:30:58.189Z,963.97
2022-10-23T13:31:58.573Z,963.94
2022-10-23T13:32:58.807Z,963.94
2022-10-23T13:33:59.144Z,963.94
2022-10-23T13:35:20.461Z,963.97
2022-10-23T13:36:00.635Z,963.99
2022-10-23T13:36:59.932Z,963.98
2022-10-23T13:38:00.138Z,963.98
2022-10-23T13:39:00.469Z,963.96
2022-10-23T13:40:00.840Z,963.89
2022-10-23T13:41:01.080Z,963.84
2022-10-23T13:42:01.285Z,963.81
2022-10-23T13:43:02.013Z,963.89
2022-10-23T13:44:02.381Z,963.96
2022-10-23T13:45:02.468Z,964.01
2022-10-23T13:46:03.469Z,964.04
2022-10-23T13:47:02.958Z,964.01
2022-10-23T13:48:08.830Z,963.92
2022-10-23T13:49:03.514Z,963.86
2022-10-23T13:50:03.642Z,963.94
2022-10-23T13:51:03.938Z,963.91
2022-10-23T13:52:04.159Z,963.89
2022-10-23T13:53:04.569Z,963.95
2022-10-23T13:54:04.855Z,964.00
2022-10-23T13:55:05.050Z,963.95
2022-10-23T13:56:05.455Z,963.95
2022-10-23T13:57:05.784Z,963.93
2022-10-23T13:58:06.049Z,963.98
2022-10-23T13:59:06.309Z,963.96
2022-10-23T14:00:06.532Z,963.95
2022-10-23T14:01:07.017Z,963.92
2022-10-23T14:02:07.365Z,963.94
2022-10-23T14:03:07.516Z,963.92
2022-10-23T14:04:07.816Z,963.86
2022-10-23T14:05:08.054Z,963.85
2022-10-23T14:06:08.255Z,963.78
2022-10-23T14:07:08.654Z,963.76
2022-10-23T14:08:08.883Z,963.74
2022-10-23T14:09:09.117Z,963.65
2022-10-23T14:10:09.320Z,963.63
2022-10-23T14:11:09.708Z,963.64
2022-10-23T14:12:09.958Z,963.61
2022-10-23T14:13:10.203Z,963.60
2022-10-23T14:14:10.550Z,963.56
2022-10-23T14:15:10.654Z,963.45
2022-10-23T14:16:10.873Z,963.43
2022-10-23T14:17:11.306Z,963.38
2022-10-23T14:18:11.640Z,963.48
2022-10-23T14:19:12.155Z,963.56
2022-10-23T14:20:12.172Z,963.62
2022-10-23T14:21:12.457Z,963.59
2022-10-23T14:22:12.739Z,963.53
2022-10-23T14:23:13.089Z,963.39
2022-10-23T14:24:13.542Z,963.31
2022-10-23T14:25:13.542Z,963.25
2022-10-23T14:26:13.947Z,963.24
2022-10-23T14:27:14.259Z,963.25
2022-10-23T14:28:14.685Z,963.29
2022-10-23T14:29:21.231Z,963.43
2022-10-23T14:30:16.528Z,963.73
2022-10-23T14:31:15.352Z,963.98
2022-10-23T14:32:16.059Z,964.19
2022-10-23T14:33:16.039Z,964.28
2022-10-23T14:34:16.403Z,964.32
2022-10-23T14:35:16.445Z,964.21
2022-10-23T14:36:16.806Z,963.90
2022-10-23T14:37:17.042Z,963.59
2022-10-23T14:38:17.542Z,963.35
2022-10-23T14:39:17.473Z,963.27
2022-10-23T14:40:17.695Z,963.28